createdAt,value
2018-05-04T00:20:03.961Z,102242.05
2018-05-04T00:22:31.680Z,102238.12
2018-05-04T00:24:59.666Z,102237.69
2018-05-04T00:36:36.732Z,102241.70
2018-05-04T00:39:04.423Z,102239.55
2018-05-04T00:41:32.019Z,102235.19
2018-05-04T00:53:08.354Z,102243.45
2018-05-04T00:55:36.013Z,102243.02
2018-05-04T00:58:03.664Z,102244.77
2018-05-04T01:09:40.228Z,102248.77
2018-05-04T01:12:07.914Z,102250.95
2018-05-04T01:14:35.442Z,102250.97
2018-05-04T01:26:11.621Z,102257.23
2018-05-04T01:28:40.020Z,102258.59
2018-05-04T01:31:07.731Z,102257.75
2018-05-04T01:33:36.950Z,102254.72
2018-05-04T01:45:13.681Z,102259.69
2018-05-04T01:47:41.275Z,102261.05
2018-05-04T01:50:09.053Z,102261.94
2018-05-04T02:01:45.572Z,102260.27
2018-05-04T02:40:41.421Z,102265.41
2018-05-04T04:57:05.213Z,102262.17
2018-05-04T07:08:16.156Z,102346.39
2018-05-04T07:11:08.604Z,102351.02
2018-05-04T07:13:36.517Z,102352.19
2018-05-04T07:43:18.107Z,102366.70
2018-05-04T07:45:45.659Z,102371.32
2018-05-04T07:48:13.736Z,102367.73
2018-05-04T07:59:48.967Z,102368.58
2018-05-04T08:02:18.298Z,102375.08
2018-05-04T08:04:46.328Z,102375.50
2018-05-04T08:16:23.803Z,102385.64
2018-05-04T08:18:51.794Z,102385.38
2018-05-04T08:21:20.515Z,102392.60
2018-05-04T08:32:57.103Z,102386.95
2018-05-04T08:35:24.870Z,102389.46
2018-05-04T08:37:52.495Z,102387.70
2018-05-04T08:40:20.084Z,102395.20
2018-05-04T08:51:57.082Z,102402.66
2018-05-04T08:54:24.763Z,102405.40
2018-05-04T08:56:52.324Z,102405.84
2018-05-04T09:08:29.251Z,102419.75
2018-05-04T09:10:56.780Z,102421.17
2018-05-04T09:13:29.072Z,102427.84
2018-05-04T09:25:05.443Z,102430.40
2018-05-04T09:27:33.084Z,102441.27
2018-05-04T09:30:00.667Z,102445.57
2018-05-04T09:41:37.625Z,102450.64
2018-05-04T09:44:05.257Z,102449.80
2018-05-04T09:46:32.955Z,102448.53
2018-05-04T09:58:12.754Z,102455.47
2018-05-04T10:00:40.614Z,102456.93
2018-05-04T10:03:08.367Z,102460.12
2018-05-04T10:17:16.868Z,102475.11
2018-05-04T10:19:44.600Z,102480.13
2018-05-04T10:22:12.405Z,102483.44
2018-05-04T10:33:48.972Z,102499.62
2018-05-04T10:36:16.913Z,102499.14
2018-05-04T10:38:44.739Z,102502.64
2018-05-04T10:50:22.079Z,102513.61
2018-05-04T10:52:49.657Z,102515.05
2018-05-04T10:55:17.205Z,102515.05
2018-05-04T10:57:44.780Z,102509.77
2018-05-04T11:00:13.296Z,102509.42
2018-05-04T11:02:41.544Z,102504.22
2018-05-04T11:05:10.160Z,102501.05
2018-05-04T11:07:37.829Z,102500.08
2018-05-04T11:10:05.467Z,102499.33
2018-05-04T11:12:33.011Z,102492.76
2018-05-04T11:15:00.809Z,102499.66
2018-05-04T11:17:29.503Z,102499.73
2018-05-04T11:19:57.192Z,102496.11
2018-05-04T11:22:25.410Z,102494.69
2018-05-04T11:24:52.987Z,102501.77
2018-05-04T11:27:20.496Z,102499.66
2018-05-04T11:29:48.010Z,102499.38
2018-05-04T11:32:15.650Z,102499.91
2018-05-04T11:34:44.531Z,102502.23
2018-05-04T11:37:12.978Z,102503.85
2018-05-04T11:39:41.041Z,102502.38
2018-05-04T11:42:08.590Z,102507.11
2018-05-04T11:44:36.114Z,102504.48
2018-05-04T11:47:03.637Z,102504.98
2018-05-04T11:49:31.462Z,102511.94
2018-05-04T11:52:00.675Z,102512.16
2018-05-04T11:54:28.657Z,102516.42
2018-05-04T11:56:57.041Z,102511.50
2018-05-04T11:59:24.588Z,102514.69
2018-05-04T12:01:52.125Z,102517.56
2018-05-04T12:04:19.708Z,102522.20
2018-05-04T12:06:47.294Z,102528.28
2018-05-04T12:11:47.905Z,102521.56
2018-05-04T12:14:16.425Z,102529.94
2018-05-04T12:16:44.122Z,102524.95
2018-05-04T12:19:11.558Z,102522.13
2018-05-04T12:21:39.103Z,102524.02
2018-05-04T12:24:06.634Z,102521.70
2018-05-04T12:26:37.143Z,102519.73
2018-05-04T12:29:05.567Z,102511.94
2018-05-04T12:31:33.114Z,102515.39
2018-05-04T12:34:00.652Z,102512.66
2018-05-04T12:36:28.180Z,102511.34
2018-05-04T12:38:55.735Z,102508.53
2018-05-04T12:41:24.164Z,102511.08
2018-05-04T12:43:53.196Z,102507.23
2018-05-04T12:46:23.183Z,102506.00
2018-05-04T12:48:52.701Z,102505.27
2018-05-04T12:51:20.254Z,102507.69
2018-05-04T12:53:47.859Z,102508.18
2018-05-04T12:56:15.330Z,102496.20
2018-05-04T12:58:43.019Z,102505.16
2018-05-04T13:01:12.652Z,102502.42
2018-05-04T13:03:45.584Z,102512.77
2018-05-04T13:06:13.203Z,102510.52
2018-05-04T13:08:40.747Z,102507.81
2018-05-04T13:11:08.270Z,102510.35
2018-05-04T13:13:35.915Z,102508.47
2018-05-04T13:16:03.528Z,102509.38
2018-05-04T13:18:41.399Z,102505.49
2018-05-04T13:21:09.324Z,102502.19
2018-05-04T13:23:40.153Z,102507.05
2018-05-04T13:26:07.687Z,102510.42
2018-05-04T13:28:35.203Z,102510.75
2018-05-04T13:31:02.706Z,102515.79
2018-05-04T13:33:30.350Z,102512.55
2018-05-04T13:35:57.956Z,102519.27
2018-05-04T13:38:29.583Z,102525.48
2018-05-04T13:41:00.663Z,102521.25
2018-05-04T13:43:28.259Z,102521.55
2018-05-04T13:45:55.832Z,102515.70
2018-05-04T13:48:23.327Z,102515.81
2018-05-04T13:50:51.818Z,102517.23
2018-05-04T13:53:20.259Z,102524.80
2018-05-04T13:55:52.805Z,102517.02
2018-05-04T13:58:21.485Z,102518.86
2018-05-04T14:00:49.068Z,102523.53
2018-05-04T14:03:16.620Z,102522.58
2018-05-04T14:05:44.197Z,102524.30
2018-05-04T14:08:19.988Z,102522.67
2018-05-04T14:10:48.133Z,102519.44
2018-05-04T14:13:17.762Z,102520.88
2018-05-04T14:15:45.418Z,102521.87
2018-05-04T14:18:12.972Z,102519.02
2018-05-04T14:20:40.514Z,102515.23
2018-05-04T14:23:08.015Z,102520.48
2018-05-04T14:25:36.859Z,102523.42
2018-05-04T14:28:05.775Z,102516.72
2018-05-04T14:30:33.634Z,102517.53
2018-05-04T14:33:01.751Z,102513.95
2018-05-04T14:35:29.284Z,102513.64
2018-05-04T14:37:56.794Z,102515.06
2018-05-04T14:40:24.412Z,102513.78
2018-05-04T14:42:53.251Z,102514.81
2018-05-04T14:45:29.984Z,102512.06
2018-05-04T14:47:59.787Z,102508.77
2018-05-04T14:50:32.035Z,102504.08
2018-05-04T14:52:59.571Z,102499.41
2018-05-04T14:55:27.148Z,102502.16
2018-05-04T14:57:54.675Z,102505.22
2018-05-04T15:02:59.875Z,102509.39
2018-05-04T15:05:29.909Z,102507.59
2018-05-04T15:07:57.752Z,102505.84
2018-05-04T15:10:25.306Z,102505.62
2018-05-04T15:12:52.852Z,102511.89
2018-05-04T15:15:20.391Z,102504.78
2018-05-04T15:17:48.247Z,102507.73
2018-05-04T15:20:21.013Z,102508.78
2018-05-04T15:22:51.845Z,102522.70
2018-05-04T15:25:24.087Z,102520.27
2018-05-04T15:27:51.660Z,102520.88
2018-05-04T15:30:19.304Z,102528.24
2018-05-04T15:32:46.966Z,102521.05
2018-05-04T15:35:16.466Z,102524.54
2018-05-04T15:37:45.520Z,102524.10
2018-05-04T15:40:15.755Z,102529.59
2018-05-04T15:42:45.948Z,102527.35
2018-05-04T15:45:13.532Z,102523.03
2018-05-04T15:47:41.096Z,102513.81
2018-05-04T15:50:14.281Z,102517.84
2018-05-04T15:52:43.960Z,102521.02
2018-05-04T15:55:16.117Z,102520.56
2018-05-04T15:57:44.873Z,102518.04
2018-05-04T16:00:13.963Z,102517.72
2018-05-04T16:02:41.503Z,102516.88
2018-05-04T16:05:09.047Z,102516.98
2018-05-04T16:07:36.627Z,102509.20
2018-05-04T16:10:04.431Z,102512.67
2018-05-04T16:12:32.064Z,102511.72
2018-05-04T16:14:59.833Z,102515.56
2018-05-04T16:17:27.583Z,102518.50
2018-05-04T16:19:55.107Z,102517.84
2018-05-04T16:22:22.663Z,102514.33
2018-05-04T16:24:50.310Z,102514.52
2018-05-04T16:27:18.187Z,102519.36
2018-05-04T16:29:45.906Z,102522.63
2018-05-04T16:32:13.473Z,102517.53
2018-05-04T16:34:41.115Z,102521.19
2018-05-04T16:37:08.659Z,102517.32
2018-05-04T16:39:36.183Z,102515.92
2018-05-04T16:42:03.771Z,102520.27
2018-05-04T16:44:34.018Z,102518.19
2018-05-04T16:47:08.189Z,102510.67
2018-05-04T16:49:37.673Z,102508.95
2018-05-04T16:52:05.943Z,102506.88
2018-05-04T16:54:33.529Z,102509.80
2018-05-04T16:57:01.172Z,102509.56
2018-05-04T16:59:28.784Z,102515.63
2018-05-04T17:01:57.200Z,102506.41
2018-05-04T17:07:17.442Z,102509.98
2018-05-04T17:09:45.261Z,102512.91
2018-05-04T17:12:15.910Z,102507.87
2018-05-04T17:14:44.319Z,102510.14
2018-05-04T17:17:13.052Z,102512.16
2018-05-04T17:19:43.514Z,102513.74
2018-05-04T17:24:49.578Z,102506.36
2018-05-04T17:27:17.739Z,102505.96
2018-05-04T17:29:45.403Z,102501.39
2018-05-04T17:32:17.892Z,102504.66
2018-05-04T17:34:46.363Z,102511.28
2018-05-04T17:37:17.616Z,102506.78
2018-05-04T17:39:46.110Z,102502.32
2018-05-04T17:42:16.959Z,102505.13
2018-05-04T17:44:44.665Z,102503.58
2018-05-04T17:47:14.313Z,102515.11
2018-05-04T17:49:41.919Z,102511.28
2018-05-04T17:52:09.624Z,102512.38
2018-05-04T17:54:37.192Z,102513.01
2018-05-04T17:57:12.533Z,102512.73
2018-05-04T17:59:40.881Z,102514.73
2018-05-04T18:02:08.427Z,102514.52
2018-05-04T18:04:35.953Z,102511.84
2018-05-04T18:07:03.492Z,102513.05
2018-05-04T18:09:31.177Z,102509.34
2018-05-04T18:11:59.530Z,102508.44
2018-05-04T18:14:29.613Z,102503.00
2018-05-04T18:16:58.185Z,102508.28
2018-05-04T18:19:27.013Z,102511.30
2018-05-04T18:21:54.587Z,102512.28
2018-05-04T18:24:22.131Z,102512.42
2018-05-04T18:26:49.695Z,102517.48
2018-05-04T18:29:17.283Z,102515.31
2018-05-04T18:31:44.955Z,102520.29
2018-05-04T18:34:12.803Z,102518.77
2018-05-04T18:36:40.303Z,102517.58
2018-05-04T18:39:07.834Z,102526.00
2018-05-04T18:41:35.348Z,102519.48
2018-05-04T18:44:03.015Z,102524.45
2018-05-04T18:46:30.803Z,102534.19
2018-05-04T18:48:58.447Z,102531.25
2018-05-04T18:51:26.032Z,102533.13
2018-05-04T18:53:53.572Z,102541.17
2018-05-04T18:56:21.096Z,102535.28
2018-05-04T18:58:48.602Z,102540.23
2018-05-04T19:01:16.239Z,102539.65
2018-05-04T19:03:45.132Z,102542.61
2018-05-04T19:06:16.140Z,102543.31
2018-05-04T19:08:45.368Z,102542.61
2018-05-04T19:11:13.002Z,102540.12
2018-05-04T19:13:40.557Z,102539.80
2018-05-04T19:16:08.149Z,102544.30
2018-05-04T19:18:39.544Z,102544.93
2018-05-04T19:21:07.423Z,102544.27
2018-05-04T19:23:35.467Z,102560.54
2018-05-04T19:26:03.520Z,102559.30
2018-05-04T19:28:31.071Z,102561.17
2018-05-04T19:30:58.683Z,102566.50
2018-05-04T19:33:26.186Z,102571.02
2018-05-04T19:35:55.439Z,102573.77
2018-05-04T19:38:27.530Z,102581.36
2018-05-04T19:40:56.603Z,102578.77
2018-05-04T19:43:24.382Z,102577.44
2018-05-04T19:45:52.030Z,102583.12
2018-05-04T19:48:19.574Z,102584.45
2018-05-04T19:50:47.222Z,102589.86
2018-05-04T19:53:14.810Z,102585.53
2018-05-04T19:55:46.092Z,102586.84
2018-05-04T19:58:14.522Z,102595.20
2018-05-04T20:00:44.987Z,102601.86
2018-05-04T20:03:12.557Z,102602.84
2018-05-04T20:05:40.091Z,102601.25
2018-05-04T20:08:07.667Z,102609.67
2018-05-04T20:10:35.449Z,102611.50
2018-05-04T20:13:04.752Z,102611.58
2018-05-04T20:15:32.648Z,102619.44
2018-05-04T20:18:00.313Z,102616.39
2018-05-04T20:20:27.808Z,102621.65
2018-05-04T20:22:55.298Z,102626.09
2018-05-04T20:25:22.834Z,102622.23
2018-05-04T20:27:50.838Z,102626.70
2018-05-04T20:30:18.511Z,102628.11
2018-05-04T20:32:48.787Z,102627.35
2018-05-04T20:35:17.133Z,102624.91
2018-05-04T20:37:44.709Z,102630.32
2018-05-04T20:40:12.285Z,102633.11
2018-05-04T20:42:39.865Z,102634.52
2018-05-04T20:45:07.821Z,102633.30
2018-05-04T20:47:36.482Z,102632.03
2018-05-04T20:52:41.745Z,102633.80
2018-05-04T20:55:09.345Z,102634.33
2018-05-04T20:57:36.966Z,102629.52
2018-05-04T21:00:04.617Z,102631.25
2018-05-04T21:02:33.254Z,102634.25
2018-05-04T21:05:02.108Z,102637.75
2018-05-04T21:07:31.722Z,102639.55
2018-05-04T21:10:00.413Z,102643.94
2018-05-04T21:12:28.054Z,102642.28
2018-05-04T21:14:55.562Z,102648.09
2018-05-04T21:17:23.187Z,102644.72
2018-05-04T21:19:51.479Z,102660.55
2018-05-04T21:22:20.774Z,102662.33
2018-05-04T21:24:52.139Z,102658.11
2018-05-04T21:27:20.832Z,102665.20
2018-05-04T21:29:48.427Z,102664.91
2018-05-04T21:32:15.978Z,102661.48
2018-05-04T21:34:43.547Z,102664.11
2018-05-04T21:39:44.880Z,102669.00
2018-05-04T21:42:17.040Z,102671.64
2018-05-04T21:44:46.096Z,102679.58
2018-05-04T21:47:13.650Z,102673.05
2018-05-04T21:49:41.253Z,102679.61
2018-05-04T21:52:08.871Z,102684.97
2018-05-04T21:54:37.393Z,102694.65
2018-05-04T21:57:08.103Z,102695.09
2018-05-04T21:59:36.899Z,102694.73
2018-05-04T22:02:05.361Z,102693.50
2018-05-04T22:04:33.439Z,102685.73
2018-05-04T22:07:00.991Z,102683.62
2018-05-04T22:09:28.704Z,102689.73
2018-05-04T22:11:57.040Z,102685.81
2018-05-04T22:14:26.757Z,102685.38
2018-05-04T22:16:56.317Z,102687.11
2018-05-04T22:19:26.122Z,102681.88
2018-05-04T22:21:53.727Z,102680.14
2018-05-04T22:24:21.317Z,102684.08
2018-05-04T22:26:48.895Z,102688.44
2018-05-04T22:29:18.004Z,102685.45
2018-05-04T22:31:45.630Z,102680.23
2018-05-04T22:34:14.012Z,102682.41
2018-05-04T22:39:15.194Z,102689.38
2018-05-04T22:41:42.702Z,102691.56
2018-05-04T22:46:42.430Z,102692.94
2018-05-04T22:49:10.960Z,102685.14
2018-05-04T22:51:39.744Z,102681.65
2018-05-04T22:54:08.731Z,102677.69
2018-05-04T22:56:36.363Z,102679.03
2018-05-04T22:59:03.852Z,102684.72
2018-05-04T23:01:31.429Z,102695.19
2018-05-04T23:04:00.880Z,102698.70
2018-05-04T23:06:29.186Z,102692.20
2018-05-04T23:08:56.986Z,102691.84
2018-05-04T23:11:25.255Z,102686.26
2018-05-04T23:13:52.813Z,102689.39
2018-05-04T23:16:20.302Z,102692.52
2018-05-04T23:18:47.910Z,102692.58
2018-05-04T23:21:15.819Z,102696.07
2018-05-04T23:23:44.395Z,102697.45
2018-05-04T23:26:12.127Z,102695.33
2018-05-04T23:28:40.123Z,102703.17
2018-05-04T23:31:07.626Z,102706.66
2018-05-04T23:33:35.122Z,102701.87
2018-05-04T23:36:02.691Z,102700.56
2018-05-04T23:38:30.481Z,102697.52
2018-05-04T23:40:58.191Z,102698.83
2018-05-04T23:43:25.919Z,102697.08
2018-05-04T23:45:53.923Z,102696.63
2018-05-04T23:48:21.499Z,102691.41
2018-05-04T23:50:49.147Z,102686.62
2018-05-04T23:53:16.735Z,102687.99
2018-05-04T23:55:44.371Z,102687.58
2018-05-04T23:58:12.162Z,102685.02
